sensor_id;sensor_type;location;lat;lon;timestamp;temperature;humidity
7155;DHT22;3619;53.784;10.440;2023-03-14T00:09:17;10.50;99.90
7155;DHT22;3619;53.784;10.440;2023-03-14T00:11:44;10.50;99.90
7155;DHT22;3619;53.784;10.440;2023-03-14T00:14:11;10.50;99.90
7155;DHT22;3619;53.784;10.440;2023-03-14T00:16:38;10.50;99.90
7155;DHT22;3619;53.784;10.440;2023-03-14T00:19:05;10.50;99.90
7155;DHT22;3619;53.784;10.440;2023-03-14T00:21:32;10.50;99.90
7155;DHT22;3619;53.784;10.440;2023-03-14T00:23:59;10.50;99.90
7155;DHT22;3619;53.784;10.440;2023-03-14T00:26:27;10.50;99.90
7155;DHT22;3619;53.784;10.440;2023-03-14T00:28:54;10.50;99.90
7155;DHT22;3619;53.784;10.440;2023-03-14T00:31:21;10.50;99.90
7155;DHT22;3619;53.784;10.440;2023-03-14T00:33:51;10.50;99.90
7155;DHT22;3619;53.784;10.440;2023-03-14T00:36:18;10.50;99.90
7155;DHT22;3619;53.784;10.440;2023-03-14T00:38:47;10.50;99.90
7155;DHT22;3619;53.784;10.440;2023-03-14T00:41:16;10.50;99.90
7155;DHT22;3619;53.784;10.440;2023-03-14T00:43:45;10.50;99.90
7155;DHT22;3619;53.784;10.440;2023-03-14T00:46:12;10.50;99.90
7155;DHT22;3619;53.784;10.440;2023-03-14T00:48:39;10.50;99.90
7155;DHT22;3619;53.784;10.440;2023-03-14T00:51:07;10.40;99.90
7155;DHT22;3619;53.784;10.440;2023-03-14T00:53:36;10.40;99.90
7155;DHT22;3619;53.784;10.440;2023-03-14T00:56:04;10.40;99.90
7155;DHT22;3619;53.784;10.440;2023-03-14T00:58:31;10.30;99.90
7155;DHT22;3619;53.784;10.440;2023-03-14T01:01:02;10.20;99.90
7155;DHT22;3619;53.784;10.440;2023-03-14T01:03:31;10.20;99.90
7155;DHT22;3619;53.784;10.440;2023-03-14T01:06:07;10.20;99.90
7155;DHT22;3619;53.784;10.440;2023-03-14T01:08:34;10.10;99.90
7155;DHT22;3619;53.784;10.440;2023-03-14T01:11:05;10.10;99.90
7155;DHT22;3619;53.784;10.440;2023-03-14T01:13:35;10.10;99.90
7155;DHT22;3619;53.784;10.440;2023-03-14T01:16:16;10.10;99.90
7155;DHT22;3619;53.784;10.440;2023-03-14T01:18:46;10.20;99.90
7155;DHT22;3619;53.784;10.440;2023-03-14T01:21:16;10.30;99.90
7155;DHT22;3619;53.784;10.440;2023-03-14T01:23:46;10.40;99.90
7155;DHT22;3619;53.784;10.440;2023-03-14T01:26:44;10.40;99.90
7155;DHT22;3619;53.784;10.440;2023-03-14T01:29:44;10.30;99.90
7155;DHT22;3619;53.784;10.440;2023-03-14T01:32:18;10.30;99.90
7155;DHT22;3619;53.784;10.440;2023-03-14T01:34:44;10.30;99.90
7155;DHT22;3619;53.784;10.440;2023-03-14T01:37:11;10.40;99.90
7155;DHT22;3619;53.784;10.440;2023-03-14T01:39:39;10.40;99.90
7155;DHT22;3619;53.784;10.440;2023-03-14T01:42:10;10.40;99.90
7155;DHT22;3619;53.784;10.440;2023-03-14T01:44:55;10.40;99.90
7155;DHT22;3619;53.784;10.440;2023-03-14T01:47:30;10.50;99.90
7155;DHT22;3619;53.784;10.440;2023-03-14T01:50:34;10.50;99.90
7155;DHT22;3619;53.784;10.440;2023-03-14T01:56:36;10.50;99.90
7155;DHT22;3619;53.784;10.440;2023-03-14T01:59:17;10.50;99.90
7155;DHT22;3619;53.784;10.440;2023-03-14T02:01:51;10.40;99.90
7155;DHT22;3619;53.784;10.440;2023-03-14T02:04:38;10.40;99.90
7155;DHT22;3619;53.784;10.440;2023-03-14T02:07:46;10.30;99.90
7155;DHT22;3619;53.784;10.440;2023-03-14T02:10:16;10.30;99.90
7155;DHT22;3619;53.784;10.440;2023-03-14T02:12:45;10.20;99.90
7155;DHT22;3619;53.784;10.440;2023-03-14T02:15:12;10.20;99.90
7155;DHT22;3619;53.784;10.440;2023-03-14T02:17:41;10.30;99.90
7155;DHT22;3619;53.784;10.440;2023-03-14T02:24:24;10.20;99.90
7155;DHT22;3619;53.784;10.440;2023-03-14T02:47:28;10.10;99.90
7155;DHT22;3619;53.784;10.440;2023-03-14T02:50:02;10.10;99.90
7155;DHT22;3619;53.784;10.440;2023-03-14T02:52:38;10.10;99.90
7155;DHT22;3619;53.784;10.440;2023-03-14T02:55:11;10.10;99.90
7155;DHT22;3619;53.784;10.440;2023-03-14T02:57:53;10.10;99.90
7155;DHT22;3619;53.784;10.440;2023-03-14T03:00:30;10.10;99.90
7155;DHT22;3619;53.784;10.440;2023-03-14T03:03:08;10.10;99.90
7155;DHT22;3619;53.784;10.440;2023-03-14T03:06:08;10.10;99.90
7155;DHT22;3619;53.784;10.440;2023-03-14T03:08:41;10.10;99.90
7155;DHT22;3619;53.784;10.440;2023-03-14T03:11:19;10.10;99.90
7155;DHT22;3619;53.784;10.440;2023-03-14T03:13:51;10.10;99.90
7155;DHT22;3619;53.784;10.440;2023-03-14T03:16:19;10.10;99.90
7155;DHT22;3619;53.784;10.440;2023-03-14T03:18:57;10.20;99.90
7155;DHT22;3619;53.784;10.440;2023-03-14T03:21:25;10.30;99.90
7155;DHT22;3619;53.784;10.440;2023-03-14T03:23:57;10.30;99.90
7155;DHT22;3619;53.784;10.440;2023-03-14T03:26:45;10.30;99.90
7155;DHT22;3619;53.784;10.440;2023-03-14T03:29:24;10.30;99.90
7155;DHT22;3619;53.784;10.440;2023-03-14T03:31:58;10.30;99.90
7155;DHT22;3619;53.784;10.440;2023-03-14T03:34:27;10.30;99.90
7155;DHT22;3619;53.784;10.440;2023-03-14T03:36:57;10.30;99.90
7155;DHT22;3619;53.784;10.440;2023-03-14T03:39:27;10.30;99.90
7155;DHT22;3619;53.784;10.440;2023-03-14T03:41:54;10.30;99.90
7155;DHT22;3619;53.784;10.440;2023-03-14T03:44:21;10.50;99.90
7155;DHT22;3619;53.784;10.440;2023-03-14T03:46:48;10.40;99.90
7155;DHT22;3619;53.784;10.440;2023-03-14T03:49:14;10.50;99.90
7155;DHT22;3619;53.784;10.440;2023-03-14T03:51:43;10.40;99.90
7155;DHT22;3619;53.784;10.440;2023-03-14T03:54:10;10.40;99.90
7155;DHT22;3619;53.784;10.440;2023-03-14T03:56:36;10.40;99.90
7155;DHT22;3619;53.784;10.440;2023-03-14T03:59:03;10.40;99.90
7155;DHT22;3619;53.784;10.440;2023-03-14T04:01:32;10.30;99.90
7155;DHT22;3619;53.784;10.440;2023-03-14T04:03:59;10.30;99.90
7155;DHT22;3619;53.784;10.440;2023-03-14T04:06:26;10.30;99.90
7155;DHT22;3619;53.784;10.440;2023-03-14T04:08:55;10.40;99.90
7155;DHT22;3619;53.784;10.440;2023-03-14T04:11:38;10.40;99.90
7155;DHT22;3619;53.784;10.440;2023-03-14T04:14:09;10.40;99.90
7155;DHT22;3619;53.784;10.440;2023-03-14T04:16:36;10.40;99.90
7155;DHT22;3619;53.784;10.440;2023-03-14T04:19:05;10.40;99.90
7155;DHT22;3619;53.784;10.440;2023-03-14T04:21:33;10.40;99.90
7155;DHT22;3619;53.784;10.440;2023-03-14T04:24:03;10.30;99.90
7155;DHT22;3619;53.784;10.440;2023-03-14T04:26:34;10.30;99.90
7155;DHT22;3619;53.784;10.440;2023-03-14T04:29:02;10.30;99.90
7155;DHT22;3619;53.784;10.440;2023-03-14T04:31:31;10.20;99.90
7155;DHT22;3619;53.784;10.440;2023-03-14T04:33:59;10.30;99.90
7155;DHT22;3619;53.784;10.440;2023-03-14T04:36:28;10.30;99.90
7155;DHT22;3619;53.784;10.440;2023-03-14T04:38:55;10.30;99.90
7155;DHT22;3619;53.784;10.440;2023-03-14T04:41:25;10.30;99.90
7155;DHT22;3619;53.784;10.440;2023-03-14T04:47:28;10.40;99.90
7155;DHT22;3619;53.784;10.440;2023-03-14T04:49:56;10.30;99.90
7155;DHT22;3619;53.784;10.440;2023-03-14T04:52:45;10.30;99.90
7155;DHT22;3619;53.784;10.440;2023-03-14T04:55:27;10.30;99.90
7155;DHT22;3619;53.784;10.440;2023-03-14T04:58:03;10.30;99.90
7155;DHT22;3619;53.784;10.440;2023-03-14T05:00:31;10.30;99.90
7155;DHT22;3619;53.784;10.440;2023-03-14T05:02:58;10.40;99.90
7155;DHT22;3619;53.784;10.440;2023-03-14T05:05:28;10.40;99.90
7155;DHT22;3619;53.784;10.440;2023-03-14T05:07:55;10.40;99.90
7155;DHT22;3619;53.784;10.440;2023-03-14T05:10:21;10.40;99.90
7155;DHT22;3619;53.784;10.440;2023-03-14T05:12:48;10.40;99.90
7155;DHT22;3619;53.784;10.440;2023-03-14T05:15:17;10.50;99.90
7155;DHT22;3619;53.784;10.440;2023-03-14T05:17:46;10.40;99.90
7155;DHT22;3619;53.784;10.440;2023-03-14T05:20:16;10.40;99.90
7155;DHT22;3619;53.784;10.440;2023-03-14T05:22:49;10.50;99.90
7155;DHT22;3619;53.784;10.440;2023-03-14T05:25:19;10.60;99.90
7155;DHT22;3619;53.784;10.440;2023-03-14T05:27:46;10.50;99.90
7155;DHT22;3619;53.784;10.440;2023-03-14T05:30:13;10.40;99.90
7155;DHT22;3619;53.784;10.440;2023-03-14T05:32:46;10.30;99.90
7155;DHT22;3619;53.784;10.440;2023-03-14T05:35:12;10.30;99.90
7155;DHT22;3619;53.784;10.440;2023-03-14T05:37:39;10.20;99.90
7155;DHT22;3619;53.784;10.440;2023-03-14T05:40:10;10.20;99.90
7155;DHT22;3619;53.784;10.440;2023-03-14T05:42:43;10.20;99.90
7155;DHT22;3619;53.784;10.440;2023-03-14T05:45:10;10.10;99.90
7155;DHT22;3619;53.784;10.440;2023-03-14T05:47:38;10.00;99.90
7155;DHT22;3619;53.784;10.440;2023-03-14T05:50:09;9.90;99.90
7155;DHT22;3619;53.784;10.440;2023-03-14T05:52:36;9.70;99.90
7155;DHT22;3619;53.784;10.440;2023-03-14T05:55:04;9.60;99.90
7155;DHT22;3619;53.784;10.440;2023-03-14T05:57:32;9.50;99.90
7155;DHT22;3619;53.784;10.440;2023-03-14T06:00:01;9.40;99.90
7155;DHT22;3619;53.784;10.440;2023-03-14T06:02:28;9.30;99.90
7155;DHT22;3619;53.784;10.440;2023-03-14T06:04:56;9.30;99.90
7155;DHT22;3619;53.784;10.440;2023-03-14T06:07:24;9.30;99.90
7155;DHT22;3619;53.784;10.440;2023-03-14T06:09:51;9.20;99.90
7155;DHT22;3619;53.784;10.440;2023-03-14T06:12:22;9.20;99.90
7155;DHT22;3619;53.784;10.440;2023-03-14T06:14:49;9.20;99.90
7155;DHT22;3619;53.784;10.440;2023-03-14T06:17:16;9.20;99.90
7155;DHT22;3619;53.784;10.440;2023-03-14T06:19:46;9.20;99.90
7155;DHT22;3619;53.784;10.440;2023-03-14T06:22:14;9.20;99.90
7155;DHT22;3619;53.784;10.440;2023-03-14T06:24:46;9.20;99.90
7155;DHT22;3619;53.784;10.440;2023-03-14T06:27:22;9.20;99.90
7155;DHT22;3619;53.784;10.440;2023-03-14T06:29:55;9.20;99.90
7155;DHT22;3619;53.784;10.440;2023-03-14T06:33:04;9.20;99.90
7155;DHT22;3619;53.784;10.440;2023-03-14T06:35:39;9.30;99.90
7155;DHT22;3619;53.784;10.440;2023-03-14T06:38:13;9.20;99.90
7155;DHT22;3619;53.784;10.440;2023-03-14T06:40:44;9.30;99.90
7155;DHT22;3619;53.784;10.440;2023-03-14T06:43:11;9.30;99.90
7155;DHT22;3619;53.784;10.440;2023-03-14T06:45:38;9.40;99.90
7155;DHT22;3619;53.784;10.440;2023-03-14T06:48:07;9.40;99.90
7155;DHT22;3619;53.784;10.440;2023-03-14T06:50:36;9.40;99.90
7155;DHT22;3619;53.784;10.440;2023-03-14T06:53:03;9.40;99.90
7155;DHT22;3619;53.784;10.440;2023-03-14T06:55:30;9.50;99.90
7155;DHT22;3619;53.784;10.440;2023-03-14T06:57:58;9.50;99.90
7155;DHT22;3619;53.784;10.440;2023-03-14T07:00:25;9.50;99.90
7155;DHT22;3619;53.784;10.440;2023-03-14T07:02:52;9.50;99.90
7155;DHT22;3619;53.784;10.440;2023-03-14T07:05:21;9.50;99.90
7155;DHT22;3619;53.784;10.440;2023-03-14T07:07:51;9.50;99.90
7155;DHT22;3619;53.784;10.440;2023-03-14T07:10:24;9.50;99.90
7155;DHT22;3619;53.784;10.440;2023-03-14T07:12:54;9.60;99.90
7155;DHT22;3619;53.784;10.440;2023-03-14T07:15:29;9.60;99.90
7155;DHT22;3619;53.784;10.440;2023-03-14T07:17:56;9.60;99.90
7155;DHT22;3619;53.784;10.440;2023-03-14T07:20:23;9.70;99.90
7155;DHT22;3619;53.784;10.440;2023-03-14T07:22:50;9.70;99.90
7155;DHT22;3619;53.784;10.440;2023-03-14T07:25:22;9.70;99.90
7155;DHT22;3619;53.784;10.440;2023-03-14T07:27:53;9.70;99.90
7155;DHT22;3619;53.784;10.440;2023-03-14T07:30:43;9.80;99.90
7155;DHT22;3619;53.784;10.440;2023-03-14T07:33:15;9.80;99.90
7155;DHT22;3619;53.784;10.440;2023-03-14T07:35:42;9.90;99.90
7155;DHT22;3619;53.784;10.440;2023-03-14T07:38:09;9.90;99.90
7155;DHT22;3619;53.784;10.440;2023-03-14T07:40:36;9.90;99.90
7155;DHT22;3619;53.784;10.440;2023-03-14T07:43:02;9.90;99.90
7155;DHT22;3619;53.784;10.440;2023-03-14T07:45:29;9.90;99.90
7155;DHT22;3619;53.784;10.440;2023-03-14T07:47:57;9.90;99.90
7155;DHT22;3619;53.784;10.440;2023-03-14T07:50:25;10.00;99.90
7155;DHT22;3619;53.784;10.440;2023-03-14T07:52:52;10.00;99.90
7155;DHT22;3619;53.784;10.440;2023-03-14T07:55:19;10.10;99.90
7155;DHT22;3619;53.784;10.440;2023-03-14T07:57:46;10.10;99.90
7155;DHT22;3619;53.784;10.440;2023-03-14T08:00:15;10.20;99.90
7155;DHT22;3619;53.784;10.440;2023-03-14T08:02:41;10.30;99.90
7155;DHT22;3619;53.784;10.440;2023-03-14T08:05:10;10.40;99.90
7155;DHT22;3619;53.784;10.440;2023-03-14T08:07:44;10.50;99.90
7155;DHT22;3619;53.784;10.440;2023-03-14T08:10:11;10.70;99.90
7155;DHT22;3619;53.784;10.440;2023-03-14T08:12:41;10.70;99.90
7155;DHT22;3619;53.784;10.440;2023-03-14T08:15:12;10.50;99.90
7155;DHT22;3619;53.784;10.440;2023-03-14T08:17:42;10.40;99.90
7155;DHT22;3619;53.784;10.440;2023-03-14T08:20:11;10.40;99.90
7155;DHT22;3619;53.784;10.440;2023-03-14T08:22:38;10.40;99.90
7155;DHT22;3619;53.784;10.440;2023-03-14T08:25:06;10.30;99.90
7155;DHT22;3619;53.784;10.440;2023-03-14T08:27:33;10.40;99.90
7155;DHT22;3619;53.784;10.440;2023-03-14T08:30:00;10.30;99.90
7155;DHT22;3619;53.784;10.440;2023-03-14T08:32:28;10.30;99.90
7155;DHT22;3619;53.784;10.440;2023-03-14T08:35:00;10.20;99.90
7155;DHT22;3619;53.784;10.440;2023-03-14T08:37:28;10.20;99.90
7155;DHT22;3619;53.784;10.440;2023-03-14T08:39:56;10.30;99.90
7155;DHT22;3619;53.784;10.440;2023-03-14T08:42:30;10.40;99.90
7155;DHT22;3619;53.784;10.440;2023-03-14T08:44:58;10.50;99.90
7155;DHT22;3619;53.784;10.440;2023-03-14T08:47:25;10.60;99.90
7155;DHT22;3619;53.784;10.440;2023-03-14T08:50:05;10.80;99.90
7155;DHT22;3619;53.784;10.440;2023-03-14T08:52:46;11.00;99.90
7155;DHT22;3619;53.784;10.440;2023-03-14T08:55:13;11.10;99.90
7155;DHT22;3619;53.784;10.440;2023-03-14T08:57:40;11.00;99.90
7155;DHT22;3619;53.784;10.440;2023-03-14T09:00:09;10.90;99.90
7155;DHT22;3619;53.784;10.440;2023-03-14T09:02:36;10.80;99.90
7155;DHT22;3619;53.784;10.440;2023-03-14T09:05:04;10.80;99.90
7155;DHT22;3619;53.784;10.440;2023-03-14T09:07:31;10.80;99.90
7155;DHT22;3619;53.784;10.440;2023-03-14T09:10:01;10.80;99.90
7155;DHT22;3619;53.784;10.440;2023-03-14T09:12:28;10.80;99.90
7155;DHT22;3619;53.784;10.440;2023-03-14T09:14:58;10.80;99.90
7155;DHT22;3619;53.784;10.440;2023-03-14T09:17:28;10.70;99.90
7155;DHT22;3619;53.784;10.440;2023-03-14T09:19:55;10.70;99.90
7155;DHT22;3619;53.784;10.440;2023-03-14T09:22:22;10.60;99.90
7155;DHT22;3619;53.784;10.440;2023-03-14T09:24:48;10.60;99.90
7155;DHT22;3619;53.784;10.440;2023-03-14T09:27:21;10.60;99.90
7155;DHT22;3619;53.784;10.440;2023-03-14T09:29:48;10.70;99.90
7155;DHT22;3619;53.784;10.440;2023-03-14T09:32:14;10.70;99.90
7155;DHT22;3619;53.784;10.440;2023-03-14T09:34:41;10.80;99.90
7155;DHT22;3619;53.784;10.440;2023-03-14T09:37:08;10.80;99.90
7155;DHT22;3619;53.784;10.440;2023-03-14T09:39:35;10.60;99.90
7155;DHT22;3619;53.784;10.440;2023-03-14T09:42:06;10.70;99.90
7155;DHT22;3619;53.784;10.440;2023-03-14T09:44:38;10.70;99.90
7155;DHT22;3619;53.784;10.440;2023-03-14T09:47:07;10.80;99.90
7155;DHT22;3619;53.784;10.440;2023-03-14T09:49:39;10.80;99.90
7155;DHT22;3619;53.784;10.440;2023-03-14T09:52:13;10.80;99.90
7155;DHT22;3619;53.784;10.440;2023-03-14T09:54:44;10.70;99.90
7155;DHT22;3619;53.784;10.440;2023-03-14T09:57:16;10.70;99.90
7155;DHT22;3619;53.784;10.440;2023-03-14T09:59:49;10.60;99.90
7155;DHT22;3619;53.784;10.440;2023-03-14T10:02:19;10.60;99.90
7155;DHT22;3619;53.784;10.440;2023-03-14T10:04:50;10.50;99.90
7155;DHT22;3619;53.784;10.440;2023-03-14T10:07:19;10.40;99.90
7155;DHT22;3619;53.784;10.440;2023-03-14T10:09:50;10.20;99.90
7155;DHT22;3619;53.784;10.440;2023-03-14T10:12:19;10.10;99.90
7155;DHT22;3619;53.784;10.440;2023-03-14T10:14:51;10.10;99.90
7155;DHT22;3619;53.784;10.440;2023-03-14T10:17:23;9.80;99.90
7155;DHT22;3619;53.784;10.440;2023-03-14T10:19:52;9.50;99.90
7155;DHT22;3619;53.784;10.440;2023-03-14T10:22:20;9.10;99.90
7155;DHT22;3619;53.784;10.440;2023-03-14T10:24:54;8.80;99.90
7155;DHT22;3619;53.784;10.440;2023-03-14T10:27:31;7.90;99.90
7155;DHT22;3619;53.784;10.440;2023-03-14T10:30:01;7.50;99.90
7155;DHT22;3619;53.784;10.440;2023-03-14T10:32:34;7.10;99.90
7155;DHT22;3619;53.784;10.440;2023-03-14T10:35:19;6.80;99.90
7155;DHT22;3619;53.784;10.440;2023-03-14T10:37:52;6.60;99.90
7155;DHT22;3619;53.784;10.440;2023-03-14T10:40:24;6.40;99.90
7155;DHT22;3619;53.784;10.440;2023-03-14T10:42:53;6.30;99.90
7155;DHT22;3619;53.784;10.440;2023-03-14T10:45:31;6.20;99.90
7155;DHT22;3619;53.784;10.440;2023-03-14T10:48:17;6.10;99.90
7155;DHT22;3619;53.784;10.440;2023-03-14T10:50:56;6.10;99.90
7155;DHT22;3619;53.784;10.440;2023-03-14T10:53:24;5.90;99.90
7155;DHT22;3619;53.784;10.440;2023-03-14T10:55:51;5.30;99.90
7155;DHT22;3619;53.784;10.440;2023-03-14T10:58:23;4.80;99.90
7155;DHT22;3619;53.784;10.440;2023-03-14T11:01:05;4.40;99.90
7155;DHT22;3619;53.784;10.440;2023-03-14T11:03:36;4.20;99.90
7155;DHT22;3619;53.784;10.440;2023-03-14T11:06:08;4.10;99.90
7155;DHT22;3619;53.784;10.440;2023-03-14T11:08:47;4.00;99.90
7155;DHT22;3619;53.784;10.440;2023-03-14T11:11:20;3.90;99.90
7155;DHT22;3619;53.784;10.440;2023-03-14T11:14:01;3.90;99.90
7155;DHT22;3619;53.784;10.440;2023-03-14T11:16:41;3.80;99.90
7155;DHT22;3619;53.784;10.440;2023-03-14T11:19:21;3.90;99.90
7155;DHT22;3619;53.784;10.440;2023-03-14T11:21:53;3.80;99.90
7155;DHT22;3619;53.784;10.440;2023-03-14T11:24:31;3.80;99.90
7155;DHT22;3619;53.784;10.440;2023-03-14T11:27:00;3.90;99.90
7155;DHT22;3619;53.784;10.440;2023-03-14T11:29:38;3.90;99.90
7155;DHT22;3619;53.784;10.440;2023-03-14T11:32:13;4.00;99.90
7155;DHT22;3619;53.784;10.440;2023-03-14T11:34:44;4.00;99.90
7155;DHT22;3619;53.784;10.440;2023-03-14T11:37:18;4.00;99.90
7155;DHT22;3619;53.784;10.440;2023-03-14T11:39:56;4.00;99.90
7155;DHT22;3619;53.784;10.440;2023-03-14T11:42:26;4.00;99.90
7155;DHT22;3619;53.784;10.440;2023-03-14T11:44:55;4.10;99.90
7155;DHT22;3619;53.784;10.440;2023-03-14T11:47:26;4.20;99.90
7155;DHT22;3619;53.784;10.440;2023-03-14T11:50:00;4.20;99.90
7155;DHT22;3619;53.784;10.440;2023-03-14T11:52:33;4.20;99.90
7155;DHT22;3619;53.784;10.440;2023-03-14T11:55:05;4.40;99.90
7155;DHT22;3619;53.784;10.440;2023-03-14T11:57:33;4.50;99.90
7155;DHT22;3619;53.784;10.440;2023-03-14T12:00:05;4.50;99.90
7155;DHT22;3619;53.784;10.440;2023-03-14T12:02:48;4.50;99.90
7155;DHT22;3619;53.784;10.440;2023-03-14T12:05:37;4.60;99.90
7155;DHT22;3619;53.784;10.440;2023-03-14T12:08:42;4.60;99.90
7155;DHT22;3619;53.784;10.440;2023-03-14T12:11:17;4.70;99.90
7155;DHT22;3619;53.784;10.440;2023-03-14T12:13:48;4.70;99.90
7155;DHT22;3619;53.784;10.440;2023-03-14T12:19:31;4.60;99.90
7155;DHT22;3619;53.784;10.440;2023-03-14T12:22:07;4.60;99.90
7155;DHT22;3619;53.784;10.440;2023-03-14T12:24:41;4.60;99.90
7155;DHT22;3619;53.784;10.440;2023-03-14T12:27:44;4.80;99.90
7155;DHT22;3619;53.784;10.440;2023-03-14T12:30:27;4.80;99.90
7155;DHT22;3619;53.784;10.440;2023-03-14T12:36:11;5.00;99.90
7155;DHT22;3619;53.784;10.440;2023-03-14T12:39:10;5.20;99.90
7155;DHT22;3619;53.784;10.440;2023-03-14T12:41:48;5.20;99.90
7155;DHT22;3619;53.784;10.440;2023-03-14T12:44:39;5.10;99.90
7155;DHT22;3619;53.784;10.440;2023-03-14T12:50:14;5.00;99.90
7155;DHT22;3619;53.784;10.440;2023-03-14T12:53:06;4.90;99.90
7155;DHT22;3619;53.784;10.440;2023-03-14T12:55:38;5.00;99.90
7155;DHT22;3619;53.784;10.440;2023-03-14T13:01:16;5.20;99.90
7155;DHT22;3619;53.784;10.440;2023-03-14T13:03:47;5.20;99.90
7155;DHT22;3619;53.784;10.440;2023-03-14T13:06:50;5.30;99.90
7155;DHT22;3619;53.784;10.440;2023-03-14T13:12:36;5.30;99.90
7155;DHT22;3619;53.784;10.440;2023-03-14T13:15:19;5.20;99.90
7155;DHT22;3619;53.784;10.440;2023-03-14T13:17:48;5.20;99.90
7155;DHT22;3619;53.784;10.440;2023-03-14T13:20:20;5.30;99.90
7155;DHT22;3619;53.784;10.440;2023-03-14T13:22:49;5.30;99.90
7155;DHT22;3619;53.784;10.440;2023-03-14T13:25:18;5.30;99.90
7155;DHT22;3619;53.784;10.440;2023-03-14T13:27:49;5.30;99.90
7155;DHT22;3619;53.784;10.440;2023-03-14T13:30:20;5.30;99.90
7155;DHT22;3619;53.784;10.440;2023-03-14T13:32:48;5.40;99.90
7155;DHT22;3619;53.784;10.440;2023-03-14T13:35:18;5.50;99.90
7155;DHT22;3619;53.784;10.440;2023-03-14T13:37:52;5.60;99.90
7155;DHT22;3619;53.784;10.440;2023-03-14T13:40:23;5.70;99.90
7155;DHT22;3619;53.784;10.440;2023-03-14T13:43:02;5.80;99.90
7155;DHT22;3619;53.784;10.440;2023-03-14T13:45:43;5.80;99.90
7155;DHT22;3619;53.784;10.440;2023-03-14T13:48:13;5.80;99.90
7155;DHT22;3619;53.784;10.440;2023-03-14T13:50:46;5.80;99.90
7155;DHT22;3619;53.784;10.440;2023-03-14T13:53:12;5.90;99.90
7155;DHT22;3619;53.784;10.440;2023-03-14T13:55:39;5.70;99.90
7155;DHT22;3619;53.784;10.440;2023-03-14T13:58:19;5.70;99.90
7155;DHT22;3619;53.784;10.440;2023-03-14T14:00:54;5.70;99.90
7155;DHT22;3619;53.784;10.440;2023-03-14T14:03:22;5.70;99.90
7155;DHT22;3619;53.784;10.440;2023-03-14T14:05:49;5.70;99.90
7155;DHT22;3619;53.784;10.440;2023-03-14T14:08:19;5.60;99.90
7155;DHT22;3619;53.784;10.440;2023-03-14T14:10:47;5.60;99.90
7155;DHT22;3619;53.784;10.440;2023-03-14T14:13:17;5.60;99.90
7155;DHT22;3619;53.784;10.440;2023-03-14T14:15:52;5.60;99.90
7155;DHT22;3619;53.784;10.440;2023-03-14T14:18:23;5.60;99.90
7155;DHT22;3619;53.784;10.440;2023-03-14T14:20:51;5.60;99.90
7155;DHT22;3619;53.784;10.440;2023-03-14T14:23:25;5.60;99.90
7155;DHT22;3619;53.784;10.440;2023-03-14T14:25:54;5.70;99.90
7155;DHT22;3619;53.784;10.440;2023-03-14T14:28:28;5.70;99.90
7155;DHT22;3619;53.784;10.440;2023-03-14T14:31:22;5.80;99.90
7155;DHT22;3619;53.784;10.440;2023-03-14T14:33:57;5.80;99.90
7155;DHT22;3619;53.784;10.440;2023-03-14T14:36:27;5.90;99.90
7155;DHT22;3619;53.784;10.440;2023-03-14T14:38:58;5.80;99.90
7155;DHT22;3619;53.784;10.440;2023-03-14T14:41:32;5.80;99.90
7155;DHT22;3619;53.784;10.440;2023-03-14T14:44:03;5.70;99.90
7155;DHT22;3619;53.784;10.440;2023-03-14T14:46:36;5.70;99.90
7155;DHT22;3619;53.784;10.440;2023-03-14T14:49:06;5.80;99.90
7155;DHT22;3619;53.784;10.440;2023-03-14T14:51:41;5.70;99.90
7155;DHT22;3619;53.784;10.440;2023-03-14T14:54:14;5.70;99.90
7155;DHT22;3619;53.784;10.440;2023-03-14T14:56:47;5.70;99.90
7155;DHT22;3619;53.784;10.440;2023-03-14T14:59:21;5.70;99.90
7155;DHT22;3619;53.784;10.440;2023-03-14T15:01:50;5.70;99.90
7155;DHT22;3619;53.784;10.440;2023-03-14T15:04:21;5.80;99.90
7155;DHT22;3619;53.784;10.440;2023-03-14T15:06:49;5.70;99.90
7155;DHT22;3619;53.784;10.440;2023-03-14T15:09:18;5.80;99.90
7155;DHT22;3619;53.784;10.440;2023-03-14T15:11:45;5.80;99.90
7155;DHT22;3619;53.784;10.440;2023-03-14T15:14:13;5.70;99.90
7155;DHT22;3619;53.784;10.440;2023-03-14T15:16:42;5.70;99.90
7155;DHT22;3619;53.784;10.440;2023-03-14T15:19:12;5.70;99.90
7155;DHT22;3619;53.784;10.440;2023-03-14T15:21:42;5.60;99.90
7155;DHT22;3619;53.784;10.440;2023-03-14T15:24:11;5.60;99.90
7155;DHT22;3619;53.784;10.440;2023-03-14T15:26:40;5.70;99.90
7155;DHT22;3619;53.784;10.440;2023-03-14T15:29:13;5.60;99.90
7155;DHT22;3619;53.784;10.440;2023-03-14T15:31:44;5.70;99.90
7155;DHT22;3619;53.784;10.440;2023-03-14T15:34:14;5.60;99.90
7155;DHT22;3619;53.784;10.440;2023-03-14T15:36:42;5.60;99.90
7155;DHT22;3619;53.784;10.440;2023-03-14T15:39:23;5.70;99.90
7155;DHT22;3619;53.784;10.440;2023-03-14T15:41:50;5.60;99.90
7155;DHT22;3619;53.784;10.440;2023-03-14T15:44:20;5.60;99.90
7155;DHT22;3619;53.784;10.440;2023-03-14T15:46:49;5.50;99.90
7155;DHT22;3619;53.784;10.440;2023-03-14T15:49:16;5.50;99.90
7155;DHT22;3619;53.784;10.440;2023-03-14T15:51:51;5.40;99.90
7155;DHT22;3619;53.784;10.440;2023-03-14T15:54:20;5.40;99.90
7155;DHT22;3619;53.784;10.440;2023-03-14T15:56:47;5.40;99.90
7155;DHT22;3619;53.784;10.440;2023-03-14T15:59:23;5.40;99.90
7155;DHT22;3619;53.784;10.440;2023-03-14T16:01:57;5.40;99.90
7155;DHT22;3619;53.784;10.440;2023-03-14T16:04:24;5.30;99.90
7155;DHT22;3619;53.784;10.440;2023-03-14T16:06:52;5.30;99.90
7155;DHT22;3619;53.784;10.440;2023-03-14T16:09:19;5.30;99.90
7155;DHT22;3619;53.784;10.440;2023-03-14T16:11:51;5.20;99.90
7155;DHT22;3619;53.784;10.440;2023-03-14T16:14:20;5.20;99.90
7155;DHT22;3619;53.784;10.440;2023-03-14T16:16:52;5.20;99.90
7155;DHT22;3619;53.784;10.440;2023-03-14T16:19:23;5.30;99.90
7155;DHT22;3619;53.784;10.440;2023-03-14T16:21:54;5.30;99.90
7155;DHT22;3619;53.784;10.440;2023-03-14T16:24:24;5.40;99.90
7155;DHT22;3619;53.784;10.440;2023-03-14T16:26:52;5.40;99.90
7155;DHT22;3619;53.784;10.440;2023-03-14T16:29:19;5.40;99.90
7155;DHT22;3619;53.784;10.440;2023-03-14T16:31:48;5.40;99.90
7155;DHT22;3619;53.784;10.440;2023-03-14T16:34:17;5.30;99.90
7155;DHT22;3619;53.784;10.440;2023-03-14T16:37:01;5.40;99.90
7155;DHT22;3619;53.784;10.440;2023-03-14T16:39:28;5.30;99.90
7155;DHT22;3619;53.784;10.440;2023-03-14T16:41:56;5.30;99.90
7155;DHT22;3619;53.784;10.440;2023-03-14T16:44:24;5.20;99.90
7155;DHT22;3619;53.784;10.440;2023-03-14T16:46:55;5.10;99.90
7155;DHT22;3619;53.784;10.440;2023-03-14T16:49:22;5.00;99.90
7155;DHT22;3619;53.784;10.440;2023-03-14T16:51:51;5.00;99.90
7155;DHT22;3619;53.784;10.440;2023-03-14T16:54:21;4.90;99.90
7155;DHT22;3619;53.784;10.440;2023-03-14T16:56:50;4.90;99.90
7155;DHT22;3619;53.784;10.440;2023-03-14T16:59:19;4.80;99.90
7155;DHT22;3619;53.784;10.440;2023-03-14T17:01:50;4.80;99.90
7155;DHT22;3619;53.784;10.440;2023-03-14T17:04:17;4.80;99.90
7155;DHT22;3619;53.784;10.440;2023-03-14T17:06:44;4.80;99.90
7155;DHT22;3619;53.784;10.440;2023-03-14T17:09:11;4.70;99.90
7155;DHT22;3619;53.784;10.440;2023-03-14T17:11:41;4.60;99.90
7155;DHT22;3619;53.784;10.440;2023-03-14T17:14:09;4.60;99.90
7155;DHT22;3619;53.784;10.440;2023-03-14T17:16:36;4.50;99.90
7155;DHT22;3619;53.784;10.440;2023-03-14T17:19:05;4.60;99.90